LFPOEDDB

Guest
Details From LFPO - Paris Orly
To EDDB - Berlin Schoenefeld
Flight Number -
Tags generated
Created
Modified
Stats Distance 482 nm / 894 km
Max Altitude 35,000 ft / 10,668 m
Waypoints 8
Social Downloads 5
Likes 0
Share VATSIM

Download

Looking for another format? Having issues loading an existing format? Contact us
Advertisement - Login to hide

Notes

Basic altitude profile: - Ascent Rate: 2500ft/min - Ascent Speed: 250kts - Cruise Altitude: 35000ft - Cruise Speed: 420kts - Descent Rate: 1500ft/min - Descent Speed: 240kts

Route

LFPO CTL UZ706 NOR TL2 RISOK EDDB

ID Type Via Altitude Latitude Longitude Leg Dist Tot Dist Heading (true) Name
O LFPO APT - 0 ft / 0 m 48.72636˚ 2.36703˚ - 0 nm - Paris Orly
CTL VOR - 19,200 ft / 5,852 m 49.13775˚ 3.57769˚ 53 nm 53 nm 62° / 63° CHATILLON SUR MARNE VOR-DME
ARDEN FIX UZ706 (AWY-HI) 35,000 ft / 10,668 m 49.86194˚ 4.85778˚ 66 nm 119 nm 48° / 49° -
LENDO FIX UZ706 (AWY-HI) 35,000 ft / 10,668 m 50.62528˚ 6.27861˚ 71 nm 191 nm 49° / 51° -
NOR VOR UZ706 (AWY-HI) 35,000 ft / 10,668 m 50.84067˚ 6.69417˚ 20 nm 211 nm 51° / 51° NORVENICH VORTAC
BIGGE FIX TL2 (AWY-HI) 35,000 ft / 10,668 m 51.32550˚ 8.43283˚ 71 nm 283 nm 65° / 67° -
RISOK FIX TL2 (AWY-HI) 25,000 ft / 7,620 m 51.89083˚ 11.18917˚ 108 nm 391 nm 71° / 73° -
O EDDB APT - 0 ft / 0 m 52.37854˚ 13.52063˚ 90 nm 482 nm 70° / 72° Berlin Schoenefeld

Altitude Profile

Advertisement - Login to hide

Weather


0- 5 10 15 20 25 30 35+ Temperature / ° C

Clouds and Precipitation
Forecast for 2018-05-23 06:00 UTC. Updated 2 hours ago

Ground ~20,000 ft ~40,000 ft Winds

LFPO

Details ICAO LFPO (ORY)
Name Paris Orly
Region France
Timezone Europe/Paris (UTC+2.0)
Stats Elevation 291 ft / 89 m (AMSL)
Location 48.726360° 2.367029°
Runways 3
Magnetic Variation 0.658° E

METAR

LFPO 230700Z 03008KT 6000 BKN009 14/12 Q1018 BECMG BKN012

Decode

TAF

TAF LFPO 230500Z 2306/2412 34006KT CAVOK PROB30 TEMPO 2306/2308 3000 BR BKN004 BECMG 2308/2311 SCT030 TEMPO 2311/2321 4000 SHRA SCT040TCU PROB40 TEMPO 2313/2319 02010G20KT 2500 -TSRAGR BKN040CB BECMG 2320/2323 CAVOK PROB30 TEMPO 2402/2407 2000 BR BKN003 PROB40 TEMPO 2410/2412 4000 SHRA SCT040TCU

Decode

Departure Runways

ID Width Length Bearing (true) Bearing (mag) Surface Threshold Offset Overrun Length
02 197 ft / 60 m 7,873 ft / 2,400 m 18.29° 17.63° Concrete 0 ft / 0 m 0 ft / 0 m
06 148 ft / 45 m 11,952 ft / 3,643 m 61.78° 61.12° Asphalt 984 ft / 300 m 197 ft / 60 m
08 148 ft / 45 m 10,868 ft / 3,313 m 74.36° 73.70° Concrete 0 ft / 0 m 1,050 ft / 320 m
20 197 ft / 60 m 7,873 ft / 2,400 m 198.30° 197.64° Concrete 0 ft / 0 m 0 ft / 0 m
24 148 ft / 45 m 11,952 ft / 3,643 m 241.81° 241.15° Asphalt 0 ft / 0 m 197 ft / 60 m
26 148 ft / 45 m 10,868 ft / 3,313 m 254.39° 253.73° Concrete 1,427 ft / 435 m 0 ft / 0 m

EDDB

Details ICAO EDDB (BER)
Name Berlin Schoenefeld
Region Germany - Civil
Timezone Europe/Berlin (UTC+2.0)
Stats Elevation 157 ft / 48 m (AMSL)
Location 52.378541° 13.520629°
Runways 2
Magnetic Variation 3.866° E

METAR

EDDB 230720Z 05010KT CAVOK 20/09 Q1021 NOSIG

Decode

TAF

TAF EDDB 230500Z 2306/2406 05007KT CAVOK= TAF EDDC 230500Z 2306/2406 06005KT 9999 SCT040 BECMG 2308/2310 08010KT TEMPO 2310/2318 SHRA SCT030CB PROB30 TEMPO 2310/2318 08015G25KT 3000 TSRA BKN030CB BECMG 2319/2321 08005KT

Decode

Destination Runways

ID Width Length Bearing (true) Bearing (mag) Surface Threshold Offset Overrun Length
07 148 ft / 45 m 9,817 ft / 2,992 m 68.75° 64.88° Asphalt 0 ft / 0 m 984 ft / 300 m
07L 148 ft / 45 m 8,867 ft / 2,703 m 68.77° 64.90° Concrete 0 ft / 0 m 525 ft / 160 m
25 148 ft / 45 m 9,817 ft / 2,992 m 248.78° 244.91° Asphalt 0 ft / 0 m 984 ft / 300 m
25R 148 ft / 45 m 8,867 ft / 2,703 m 248.80° 244.93° Concrete 0 ft / 0 m 984 ft / 300 m

Approach Navaids

Runway Type Ident Frequency Range Bearing (true) Bearing (mag) Slope Elevation
07 Localiser ISSE 110.70 MHz 18 nm / 33 km 68.79° 64.92° - 157 ft / 48 m (AMSL)
07 Glidescope ISSE 110.70 MHz 10 nm / 19 km 68.77° 64.90° 3.00° 157 ft / 48 m (AMSL)
25 Localiser ISSW 109.90 MHz 18 nm / 33 km 248.75° 244.88° - 157 ft / 48 m (AMSL)
25 Glidescope ISSW 109.90 MHz 10 nm / 19 km 248.77° 244.90° 3.00° 157 ft / 48 m (AMSL)

Popular Alternatives